Madison Heights, Virginia
Current Conditions -  °F | °C
As of 3:54 AM on Friday 24 Oct 2014 (Local Time) from KLYH Reporting Station
Clear Clear  
Wind Chill: 42°   Ceiling: Unl
Heat Index: 44°   Visibility: 10mi
Dew Point: 40°   Wind: 5mph
Humidity: 85%   Direction: NA
Pressure: 30.02"   Gusts: NA
Location:  37.42°N, 79.12°W
Report Text: KLYH 240754Z AUTO VRB04KT 10SM CLR 07/04 A3002 RMK AO2 SLP163 T00670044
Loading
Personal Weather Stations






























Interactive Weather Map
Tropical Storm Tracking
New forecast layout! Learn more

10-Day Weather Forecast

Advertisements
Track Severe Weather on mobile